Time;durP1;ratioP1;P1;durP2;ratioP2;P2;SDS_P1;SDS_P2;PMS_P1;PMS_P2;Temp;Humidity;BMP_temperature;BMP_pressure;BME280_temperature;BME280_humidity;BME280_pressure;Samples;Min_cycle;Max_cycle;Signal;HPM_P1;HPM_P2
2022/12/26 00:01:25;;;;;;;10.13;6.05;;;;;;;18.77;61.80;99731.38;5051139;28;20025;-77
2022/12/26 00:03:50;;;;;;;7.10;4.60;;;;;;;18.77;61.63;99719.94;5051834;28;20045;-77
2022/12/26 00:06:19;;;;;;;10.20;5.65;;;;;;;18.79;61.77;99729.50;5051978;28;20520;-77
2022/12/26 00:08:44;;;;;;;9.10;5.20;;;;;;;18.77;61.86;99723.44;5052233;28;20466;-77
2022/12/26 00:11:11;;;;;;;11.30;6.07;;;;;;;18.76;61.90;99718.22;5052292;28;20031;-78
2022/12/26 00:13:39;;;;;;;10.68;5.65;;;;;;;18.79;62.28;99718.06;5052070;28;20032;-78
2022/12/26 00:16:10;;;;;;;10.68;6.20;;;;;;;18.75;62.31;99716.53;5052170;28;20505;-78
2022/12/26 00:18:35;;;;;;;8.63;5.30;;;;;;;18.77;61.95;99719.94;5053330;28;20064;-77
2022/12/26 00:21:00;;;;;;;10.77;6.05;;;;;;;18.77;62.30;99720.81;5056378;28;20048;-77
2022/12/26 00:23:26;;;;;;;10.38;5.38;;;;;;;18.76;62.09;99724.38;5056316;28;20116;-77
2022/12/26 00:25:51;;;;;;;8.02;5.32;;;;;;;18.78;62.17;99727.81;5054863;28;20036;-78
2022/12/26 00:28:17;;;;;;;8.80;5.63;;;;;;;18.77;62.40;99731.38;5056283;28;20028;-77
2022/12/26 00:30:42;;;;;;;8.10;5.40;;;;;;;18.76;62.20;99724.38;5056530;28;20033;-78
2022/12/26 00:33:07;;;;;;;8.93;5.85;;;;;;;18.78;62.32;99724.28;5055984;28;20397;-78
2022/12/26 00:35:33;;;;;;;9.10;6.35;;;;;;;18.77;62.35;99728.75;5056230;28;20104;-78
2022/12/26 00:37:58;;;;;;;8.95;6.20;;;;;;;18.76;62.29;99729.66;5055804;28;20029;-77
2022/12/26 00:40:24;;;;;;;8.15;5.55;;;;;;;18.76;62.39;99734.97;5056092;28;20439;-78
2022/12/26 00:42:49;;;;;;;9.80;5.55;;;;;;;18.76;62.11;99734.97;5056034;28;20036;-77
2022/12/26 00:45:14;;;;;;;8.80;5.45;;;;;;;18.76;62.20;99734.97;5054778;28;20439;-77
2022/12/26 00:47:40;;;;;;;8.65;6.28;;;;;;;18.77;62.00;99736.66;5055623;28;20029;-77
2022/12/26 00:50:06;;;;;;;9.02;6.03;;;;;;;18.75;62.35;99741.16;5055766;28;20461;-77
2022/12/26 00:52:31;;;;;;;9.95;5.90;;;;;;;18.74;62.14;99731.50;5055675;28;20025;-77
2022/12/26 00:54:56;;;;;;;8.45;5.30;;;;;;;18.76;62.31;99737.59;5055999;28;20025;-77
2022/12/26 00:57:22;;;;;;;12.35;5.70;;;;;;;18.74;62.32;99736.81;5054440;28;20029;-78
2022/12/26 00:59:47;;;;;;;10.40;5.50;;;;;;;18.76;62.20;99729.66;5054576;28;20025;-77
2022/12/26 01:04:56;;;;;;;9.02;5.28;;;;;;;18.77;62.30;99743.72;5055759;28;20036;-77
2022/12/26 01:07:22;;;;;;;9.02;5.75;;;;;;;18.76;62.39;99740.25;5054951;28;20033;-78
2022/12/26 01:09:47;;;;;;;8.25;4.97;;;;;;;18.75;62.31;99738.50;5055586;28;20035;-77
2022/12/26 01:12:13;;;;;;;9.07;5.38;;;;;;;18.76;62.12;99745.53;5054193;28;20393;-77
2022/12/26 01:14:38;;;;;;;7.95;4.75;;;;;;;18.77;62.28;99746.38;5055591;28;20030;-77
2022/12/26 01:17:03;;;;;;;7.93;4.97;;;;;;;18.76;62.20;99742.88;5054759;28;20657;-78
2022/12/26 01:19:29;;;;;;;9.50;5.32;;;;;;;18.75;62.06;99746.44;5055472;28;20396;-77
2022/12/26 01:21:54;;;;;;;9.38;5.30;;;;;;;18.73;62.14;99748.31;5055422;28;20064;-77
2022/12/26 01:24:20;;;;;;;8.95;5.38;;;;;;;18.71;62.27;99750.19;5055512;28;20025;-78
2022/12/26 01:26:45;;;;;;;11.35;5.57;;;;;;;18.73;62.07;99758.00;5055417;28;20534;-76
2022/12/26 01:29:11;;;;;;;10.10;6.30;;;;;;;18.73;62.18;99750.94;5059115;28;20032;-77
2022/12/26 01:31:36;;;;;;;9.32;5.65;;;;;;;18.74;62.06;99751.81;5057222;28;20029;-77
2022/12/26 01:34:01;;;;;;;8.85;5.20;;;;;;;18.73;62.16;99756.25;5055420;28;20084;-77
2022/12/26 01:36:27;;;;;;;8.50;5.50;;;;;;;18.74;62.03;99763.22;5053770;28;20029;-78
2022/12/26 01:38:52;;;;;;;8.75;4.90;;;;;;;18.75;62.17;99775.53;5054992;28;20040;-77
2022/12/26 01:41:18;;;;;;;10.85;5.93;;;;;;;18.73;62.35;99777.38;5054936;28;20032;-77
2022/12/26 01:44:05;;;;;;;7.78;5.47;;;;;;;18.73;62.36;99787.97;5054800;28;20073;-77
2022/12/26 01:46:44;;;;;;;8.93;4.82;;;;;;;18.73;62.09;99790.59;5054731;28;20417;-78
2022/12/26 01:49:31;;;;;;;8.10;5.22;;;;;;;18.74;62.05;99794.97;5053708;28;20339;-77
2022/12/26 01:52:02;;;;;;;8.85;5.68;;;;;;;18.73;62.14;99787.97;5054531;28;20017;-78
2022/12/26 01:54:31;;;;;;;8.90;5.68;;;;;;;18.73;62.14;99793.25;5054570;28;20032;-77
2022/12/26 01:56:57;;;;;;;8.00;4.80;;;;;;;18.74;62.11;99794.97;5054689;28;20033;-77
2022/12/26 01:59:27;;;;;;;9.70;5.50;;;;;;;18.74;62.13;99804.69;5054315;28;20032;-77
2022/12/26 02:01:54;;;;;;;8.05;5.38;;;;;;;18.75;62.20;99809.03;5054707;28;20090;-77
2022/12/26 02:07:08;;;;;;;8.57;5.38;;;;;;;18.72;62.09;99812.69;5054287;28;20095;-77
2022/12/26 02:09:35;;;;;;;9.68;5.75;;;;;;;18.73;62.51;99818.81;5054224;28;20029;-77
2022/12/26 02:12:09;;;;;;;8.18;4.88;;;;;;;18.73;62.26;99824.97;5054250;28;20033;-78
2022/12/26 02:14:35;;;;;;;8.32;5.20;;;;;;;18.72;62.39;99831.19;5053982;28;20025;-78
2022/12/26 02:17:01;;;;;;;6.82;4.85;;;;;;;18.75;62.20;99832.84;5053990;28;20094;-78
2022/12/26 02:19:30;;;;;;;7.63;5.15;;;;;;;18.74;62.43;99831.13;5054280;28;20427;-78
2022/12/26 02:22:06;;;;;;;9.05;5.60;;;;;;;18.75;62.40;99844.25;5054258;28;20528;-77
2022/12/26 02:24:53;;;;;;;10.88;6.22;;;;;;;18.73;62.50;99837.31;5054127;28;20040;-77
2022/12/26 02:27:44;;;;;;;7.68;4.80;;;;;;;18.74;62.47;99825.84;5053627;28;20048;-78
2022/12/26 02:30:50;;;;;;;7.95;5.30;;;;;;;18.74;62.27;99824.03;5053999;28;20071;-77
2022/12/26 02:33:24;;;;;;;8.30;5.55;;;;;;;18.73;62.49;99824.97;5048942;28;20037;-77
2022/12/26 02:35:53;;;;;;;9.05;5.38;;;;;;;18.74;62.45;99816.09;5053832;28;20108;-77
2022/12/26 02:38:27;;;;;;;6.70;4.40;;;;;;;18.70;62.22;99814.53;5053585;28;20071;-76
2022/12/26 02:41:16;;;;;;;7.95;5.13;;;;;;;18.71;62.59;99815.38;5053886;28;20565;-78
2022/12/26 02:47:01;;;;;;;7.40;5.05;;;;;;;18.72;62.40;99817.97;5052764;28;20044;-77
2022/12/26 02:47:02;;;;;;;;;;;;;;;18.72;62.64;99836.47;5053930;28;20036;-77
2022/12/26 03:13:23;;;;;;;8.95;5.00;;;;;;;18.71;62.58;99836.53;5070666;28;20110;-77
2022/12/26 03:18:51;;;;;;;7.35;4.28;;;;;;;18.73;62.50;99832.91;5071304;28;20028;-77
2022/12/26 03:21:20;;;;;;;6.82;4.32;;;;;;;18.71;62.28;99832.13;5070890;28;20032;-78
2022/12/26 03:23:48;;;;;;;8.20;4.80;;;;;;;18.67;62.45;99827.91;5070900;28;20028;-77
2022/12/26 03:26:40;;;;;;;8.55;4.85;;;;;;;18.65;62.59;99822.66;5070349;28;20494;-77
2022/12/26 03:31:53;;;;;;;6.93;5.10;;;;;;;18.66;62.42;99836.75;5071086;28;20070;-77
2022/12/26 03:34:19;;;;;;;7.03;5.13;;;;;;;18.67;62.48;99834.94;5070830;28;20028;-77
2022/12/26 03:37:06;;;;;;;7.40;5.20;;;;;;;18.67;62.56;99846.41;5070665;28;20028;-77
2022/12/26 04:20:45;;;;;;;9.32;5.28;;;;;;;18.63;62.35;99810.44;5030424;28;20142;-77
2022/12/26 04:46:05;;;;;;;7.50;4.50;;;;;;;18.61;62.28;99825.53;5032021;28;20406;-77
2022/12/26 04:51:16;;;;;;;9.52;4.93;;;;;;;18.61;62.52;99838.75;5032179;28;20032;-77
2022/12/26 04:53:41;;;;;;;6.47;4.40;;;;;;;18.61;62.29;99833.47;5049880;28;20100;-77
2022/12/26 04:56:08;;;;;;;7.28;4.78;;;;;;;18.57;62.50;99835.38;5051913;28;20354;-77
2022/12/26 04:58:33;;;;;;;9.10;4.55;;;;;;;18.58;62.28;99831.81;5051963;28;20032;-77
2022/12/26 05:09:33;;;;;;;5.97;4.30;;;;;;;18.61;62.52;99833.47;5051829;28;20025;-78
2022/12/26 05:09:35;;;;;;;7.82;5.20;;;;;;;18.60;62.18;99829.09;5055266;28;20527;-77
2022/12/26 05:12:03;;;;;;;7.13;4.32;;;;;;;18.61;62.15;99830.81;5055331;28;20029;-77
2022/12/26 05:14:30;;;;;;;5.93;4.30;;;;;;;18.60;62.23;99844.97;5055445;28;20017;-77
2022/12/26 05:30:47;;;;;;;7.25;5.03;;;;;;;18.60;62.39;99855.53;5057698;28;20042;-77
2022/12/26 05:35:57;;;;;;;8.48;4.90;;;;;;;18.58;62.26;99865.28;5058610;28;20063;-78
2022/12/26 05:38:23;;;;;;;6.88;4.38;;;;;;;18.58;62.46;99873.22;5058037;28;20068;-78
2022/12/26 05:40:48;;;;;;;6.15;4.25;;;;;;;18.61;62.26;99873.97;5056724;28;20059;-77
2022/12/26 05:43:14;;;;;;;6.97;4.53;;;;;;;18.60;62.13;99882.81;5055053;28;20382;-77
2022/12/26 05:45:39;;;;;;;7.50;4.38;;;;;;;18.59;62.18;99870.53;5055313;28;20029;-77
2022/12/26 05:48:05;;;;;;;6.55;4.35;;;;;;;18.59;62.47;99874.97;5054817;28;20045;-77
2022/12/26 05:50:30;;;;;;;7.47;4.70;;;;;;;18.58;62.67;99878.50;5054586;28;20029;-78
2022/12/26 05:52:57;;;;;;;7.05;4.47;;;;;;;18.58;62.60;99889.94;5054613;28;20047;-77
2022/12/26 05:55:23;;;;;;;6.03;4.38;;;;;;;18.58;62.35;99889.09;5054898;28;20029;-77
2022/12/26 05:57:49;;;;;;;6.32;4.35;;;;;;;18.58;62.54;99892.59;5054696;28;20108;-77
2022/12/26 06:00:15;;;;;;;7.10;4.80;;;;;;;18.56;62.48;99890.94;5053403;28;20028;-76
2022/12/26 06:02:42;;;;;;;6.53;4.20;;;;;;;18.57;62.71;99892.66;5054684;28;20025;-77
2022/12/26 06:05:08;;;;;;;7.80;4.45;;;;;;;18.56;62.48;99902.38;5052997;28;20527;-76
2022/12/26 06:07:33;;;;;;;5.80;4.40;;;;;;;18.57;62.69;99904.09;5054396;28;20036;-77
2022/12/26 06:09:58;;;;;;;6.85;4.30;;;;;;;18.57;62.75;99903.22;5054592;28;20432;-78
2022/12/26 06:12:24;;;;;;;5.90;4.53;;;;;;;18.54;62.52;99909.50;5054553;28;20032;-77
2022/12/26 06:14:49;;;;;;;6.38;4.70;;;;;;;18.54;62.65;99903.38;5054440;28;20025;-77
2022/12/26 06:17:15;;;;;;;7.97;4.53;;;;;;;18.56;62.57;99906.81;5054005;28;20049;-78
2022/12/26 06:19:42;;;;;;;7.22;5.03;;;;;;;18.56;62.67;99906.81;5052713;28;20127;-77
2022/12/26 06:22:08;;;;;;;7.20;5.22;;;;;;;18.54;62.79;99904.22;5052890;28;20017;-78
2022/12/26 06:24:33;;;;;;;6.93;4.53;;;;;;;18.58;62.68;99915.50;5054387;28;20017;-77
2022/12/26 06:26:58;;;;;;;6.45;4.07;;;;;;;18.60;62.59;99926.91;5053951;28;20028;-77
2022/12/26 06:29:24;;;;;;;7.25;4.65;;;;;;;18.55;62.59;99923.59;5053973;28;20036;-78
2022/12/26 06:31:49;;;;;;;6.97;4.47;;;;;;;18.55;62.54;99929.72;5054073;28;20021;-77
2022/12/26 06:34:17;;;;;;;6.75;4.45;;;;;;;18.56;62.37;99935.88;5053713;28;20017;-77
2022/12/26 06:36:42;;;;;;;7.32;4.78;;;;;;;18.55;62.58;99936.81;5053873;28;20420;-78
2022/12/26 06:39:08;;;;;;;7.93;4.97;;;;;;;18.52;62.66;99928.09;5053818;28;20032;-78
2022/12/26 06:41:33;;;;;;;7.78;4.88;;;;;;;18.54;62.60;99919.25;5054000;28;20071;-77
2022/12/26 06:43:59;;;;;;;6.70;4.25;;;;;;;18.55;62.38;99923.59;5053988;28;20071;-77
2022/12/26 06:46:25;;;;;;;7.22;4.75;;;;;;;18.56;62.62;99927.94;5053565;28;20397;-78
2022/12/26 06:48:51;;;;;;;7.10;4.75;;;;;;;18.51;62.74;99922.88;5053408;28;20025;-77
2022/12/26 06:51:22;;;;;;;6.03;4.57;;;;;;;18.52;62.59;99933.38;5053548;28;20025;-77
2022/12/26 06:53:49;;;;;;;7.43;5.22;;;;;;;18.52;62.52;99933.38;5053493;28;20485;-78
2022/12/26 06:56:20;;;;;;;8.25;4.40;;;;;;;18.55;62.57;99932.38;5052266;28;20036;-77
2022/12/26 06:58:46;;;;;;;7.03;4.55;;;;;;;18.54;62.39;99932.44;5049585;28;20090;-78
2022/12/26 07:01:14;;;;;;;6.65;4.43;;;;;;;18.54;62.62;99940.38;5053561;28;20028;-77
2022/12/26 07:03:40;;;;;;;6.78;4.30;;;;;;;18.51;62.50;99944.84;5051838;28;20020;-77
2022/12/26 07:06:11;;;;;;;7.05;4.13;;;;;;;18.53;62.75;99947.44;5053275;28;20393;-77
2022/12/26 07:08:36;;;;;;;6.63;4.15;;;;;;;18.55;62.70;99953.50;5053481;28;20159;-78
2022/12/26 07:11:02;;;;;;;7.18;4.28;;;;;;;18.52;62.67;99965.09;5052069;28;20537;-78
2022/12/26 07:13:28;;;;;;;6.25;4.28;;;;;;;18.54;62.44;99972.94;5053259;28;20021;-77
2022/12/26 07:15:57;;;;;;;7.72;4.72;;;;;;;18.54;62.56;99980.88;5051549;28;20417;-77
2022/12/26 07:18:22;;;;;;;6.28;4.43;;;;;;;18.51;62.76;99995.06;5052874;28;20067;-78
2022/12/26 07:20:48;;;;;;;5.72;3.75;;;;;;;18.52;62.66;99994.16;5053157;28;20057;-78
2022/12/26 07:23:14;;;;;;;7.53;4.35;;;;;;;18.55;62.64;99994.94;5053071;28;20037;-79
2022/12/26 07:25:39;;;;;;;6.47;4.30;;;;;;;18.51;62.53;99996.88;5052891;28;20438;-78
2022/12/26 07:28:05;;;;;;;8.15;5.20;;;;;;;18.54;62.62;99998.53;5052392;28;20033;-77
2022/12/26 07:30:30;;;;;;;7.18;4.93;;;;;;;18.51;62.65;100005.63;5085651;28;20112;-78
2022/12/26 07:32:56;;;;;;;6.57;4.40;;;;;;;18.53;62.39;100010.88;5052569;28;20459;-76
2022/12/26 07:35:21;;;;;;;7.75;4.82;;;;;;;18.52;62.63;100023.25;5051551;28;20021;-78
2022/12/26 07:37:47;;;;;;;6.47;4.47;;;;;;;18.52;62.59;100012.66;5052672;28;20393;-78
2022/12/26 07:40:12;;;;;;;7.35;4.53;;;;;;;18.49;62.61;100018.06;5053144;28;20024;-77
2022/12/26 07:42:37;;;;;;;6.00;4.22;;;;;;;18.52;62.70;100023.25;5053082;28;20068;-77
2022/12/26 07:45:03;;;;;;;7.85;4.72;;;;;;;18.52;62.39;100025.00;5051549;28;20544;-78
2022/12/26 07:47:29;;;;;;;5.72;3.95;;;;;;;18.52;62.53;100036.44;5051719;28;20033;-77
2022/12/26 07:49:54;;;;;;;7.10;4.68;;;;;;;18.50;62.63;100027.69;5051733;28;20021;-78
2022/12/26 07:52:20;;;;;;;6.93;3.85;;;;;;;18.51;62.66;100037.34;5052107;28;20025;-78
2022/12/26 07:54:45;;;;;;;6.80;4.50;;;;;;;18.53;62.66;100032.00;5050391;28;20060;-78
2022/12/26 07:57:11;;;;;;;6.88;4.90;;;;;;;18.52;62.70;100039.09;5050530;28;20029;-78
2022/12/26 07:59:36;;;;;;;7.00;4.57;;;;;;;18.52;62.38;100036.44;5052134;28;20417;-78
2022/12/26 08:02:03;;;;;;;7.85;4.78;;;;;;;18.52;62.51;100044.38;5052107;28;20408;-77
2022/12/26 08:04:30;;;;;;;7.35;5.15;;;;;;;18.50;62.70;100043.56;5054178;28;20040;-78
2022/12/26 08:06:56;;;;;;;6.78;4.82;;;;;;;18.51;62.64;100047.06;5053311;28;20155;-79
2022/12/26 08:09:22;;;;;;;7.38;4.75;;;;;;;18.54;62.48;100059.31;5051288;28;20049;-78
2022/12/26 08:11:47;;;;;;;7.82;4.82;;;;;;;18.50;62.58;100056.78;5066515;28;20101;-79
2022/12/26 08:14:15;;;;;;;6.25;4.82;;;;;;;18.51;62.66;100058.50;5060984;28;20123;-77
2022/12/26 08:16:41;;;;;;;6.55;4.53;;;;;;;18.52;62.68;100070.81;5053769;28;20401;-77
2022/12/26 08:19:07;;;;;;;7.88;4.43;;;;;;;18.51;62.80;100084.91;5052019;28;20025;-77
2022/12/26 08:21:32;;;;;;;6.85;4.40;;;;;;;18.50;62.49;100093.78;5053679;28;20370;-79
2022/12/26 08:23:58;;;;;;;8.75;4.97;;;;;;;18.50;62.74;100099.06;5055919;28;20134;-77
2022/12/26 08:26:23;;;;;;;7.10;4.35;;;;;;;18.49;62.85;100102.63;5074765;28;20025;-78
2022/12/26 08:28:50;;;;;;;6.40;4.47;;;;;;;18.50;62.84;100116.72;5044981;28;20024;-78
2022/12/26 08:31:17;;;;;;;7.07;4.28;;;;;;;18.50;62.59;100120.19;5050556;28;20094;-77
2022/12/26 08:33:43;;;;;;;7.93;4.78;;;;;;;18.50;62.96;100125.50;5050179;28;20033;-78
2022/12/26 08:36:11;;;;;;;6.13;4.65;;;;;;;18.52;62.95;100130.72;5051412;28;20104;-77
2022/12/26 08:38:38;;;;;;;9.18;4.82;;;;;;;18.50;63.09;100136.06;5051349;28;20083;-77
2022/12/26 08:41:04;;;;;;;7.53;5.60;;;;;;;18.52;63.00;100139.53;5053578;28;20017;-78
2022/12/26 08:43:30;;;;;;;7.07;5.15;;;;;;;18.52;62.85;100146.56;5055563;28;20024;-77
2022/12/26 08:46:04;;;;;;;8.32;5.20;;;;;;;18.51;63.24;100153.63;5053608;28;20029;-78
2022/12/26 08:48:31;;;;;;;6.93;5.65;;;;;;;18.52;63.10;100162.44;5055560;28;20083;-77
2022/12/26 08:51:05;;;;;;;8.98;5.60;;;;;;;18.55;63.06;100169.38;5055263;28;20021;-77
2022/12/26 08:53:34;;;;;;;9.50;5.90;;;;;;;18.55;62.99;100177.31;5054354;28;20048;-76
2022/12/26 08:56:00;;;;;;;9.77;6.25;;;;;;;18.55;62.75;100178.16;5052368;28;20023;-78
2022/12/26 08:58:27;;;;;;;9.30;6.25;;;;;;;18.54;62.87;100194.09;5055379;28;20029;-77
2022/12/26 09:00:52;;;;;;;9.82;6.30;;;;;;;18.54;62.78;100202.88;5055218;28;20032;-78
2022/12/26 09:03:18;;;;;;;7.75;5.60;;;;;;;18.54;62.74;100207.31;5052740;28;20025;-78
2022/12/26 09:05:43;;;;;;;8.80;6.30;;;;;;;18.54;62.83;100215.25;5055105;28;20025;-77
2022/12/26 09:08:10;;;;;;;8.82;6.63;;;;;;;18.54;62.49;100212.59;5055248;28;20029;-77
2022/12/26 09:10:36;;;;;;;9.52;6.40;;;;;;;18.54;62.71;100225.81;5054997;28;20025;-77
2022/12/26 09:13:01;;;;;;;8.50;6.53;;;;;;;18.52;62.86;100223.22;5054860;28;20049;-78
2022/12/26 09:15:27;;;;;;;8.18;6.05;;;;;;;18.51;62.67;100227.63;5052984;28;20141;-79
2022/12/26 09:17:52;;;;;;;8.18;5.82;;;;;;;18.56;62.61;100227.47;5049984;28;20065;-77
2022/12/26 09:20:18;;;;;;;9.38;6.63;;;;;;;18.56;62.70;100223.97;5047970;28;20112;-78
2022/12/26 09:22:53;;;;;;;9.55;6.68;;;;;;;18.55;62.81;100238.09;5070095;28;20127;-78
2022/12/26 09:25:20;;;;;;;9.85;6.30;;;;;;;18.56;62.82;100250.38;5063963;28;20479;-78
2022/12/26 09:27:46;;;;;;;9.35;6.43;;;;;;;18.52;62.89;100247.88;5069595;28;20496;-77
2022/12/26 09:30:13;;;;;;;9.13;5.88;;;;;;;18.54;62.80;100254.88;5057756;28;20029;-76
2022/12/26 09:32:39;;;;;;;11.77;6.60;;;;;;;18.52;62.81;100255.81;5068874;28;20503;-77
2022/12/26 09:35:05;;;;;;;8.20;5.97;;;;;;;18.55;62.83;100261.88;5053984;28;20048;-77
2022/12/26 09:37:31;;;;;;;9.48;6.47;;;;;;;18.57;62.64;100257.41;5065405;28;20024;-76
2022/12/26 09:39:56;;;;;;;8.07;5.82;;;;;;;18.54;62.69;100263.66;5062758;28;20036;-77
2022/12/26 09:42:25;;;;;;;9.50;6.13;;;;;;;18.54;62.86;100263.66;5062343;28;20035;-77
2022/12/26 09:45:07;;;;;;;9.55;5.93;;;;;;;18.55;62.88;100272.47;5054012;28;20530;-78
2022/12/26 09:47:32;;;;;;;9.23;6.20;;;;;;;18.55;62.82;100273.31;5058181;28;20070;-78
2022/12/26 09:50:13;;;;;;;8.60;6.10;;;;;;;18.56;62.86;100276.81;5057445;28;20029;-78
2022/12/26 09:52:38;;;;;;;8.50;5.93;;;;;;;18.56;62.71;100276.81;5056290;28;20397;-78
2022/12/26 09:55:24;;;;;;;8.35;6.47;;;;;;;18.58;62.68;100280.25;5058369;28;20024;-78
2022/12/26 09:57:51;;;;;;;8.75;6.35;;;;;;;18.57;62.81;100286.47;5045185;28;20365;-78
2022/12/26 10:00:25;;;;;;;10.02;6.72;;;;;;;18.56;62.89;100287.41;5073660;28;20081;-77
2022/12/26 10:02:53;;;;;;;8.55;6.53;;;;;;;18.54;62.79;100283.97;5067574;28;20496;-78
2022/12/26 10:05:28;;;;;;;10.23;7.05;;;;;;;18.56;62.89;100292.69;5071063;28;20032;-76
2022/12/26 10:08:19;;;;;;;9.48;7.13;;;;;;;18.56;63.26;100298.84;5060023;28;20043;-76
2022/12/26 10:10:56;;;;;;;10.40;6.97;;;;;;;18.58;62.74;100306.69;5067792;28;20037;-78
2022/12/26 10:13:28;;;;;;;10.65;6.57;;;;;;;18.61;62.98;100314.53;5067058;28;20028;-77
2022/12/26 10:16:18;;;;;;;9.60;6.88;;;;;;;18.59;63.09;100308.44;5054496;28;20043;-77
2022/12/26 10:19:00;;;;;;;9.45;6.88;;;;;;;18.58;62.84;100312.84;5063534;28;20036;-76
2022/12/26 10:21:46;;;;;;;9.40;7.03;;;;;;;18.61;63.09;100309.22;5074524;28;20078;-78
2022/12/26 10:24:15;;;;;;;8.63;6.45;;;;;;;18.61;63.09;100306.59;5064834;28;20017;-76
2022/12/26 10:26:48;;;;;;;9.05;7.43;;;;;;;18.60;62.88;100315.44;5053107;28;20025;-77
2022/12/26 10:29:28;;;;;;;9.27;6.78;;;;;;;18.62;62.83;100313.59;5049143;28;20079;-77
2022/12/26 10:32:06;;;;;;;10.52;7.20;;;;;;;18.63;63.11;100310.91;5049021;28;20032;-77
2022/12/26 10:34:49;;;;;;;9.68;6.50;;;;;;;18.63;63.05;100312.66;5054658;28;20064;-78
2022/12/26 10:37:17;;;;;;;9.55;6.57;;;;;;;18.64;62.71;100311.75;5046284;28;20029;-77
2022/12/26 10:39:50;;;;;;;9.15;6.90;;;;;;;18.62;63.11;100308.31;5061786;28;20025;-77
2022/12/26 10:42:24;;;;;;;9.00;6.30;;;;;;;18.63;63.12;100310.03;5051625;28;20477;-78
2022/12/26 10:44:50;;;;;;;11.15;6.38;;;;;;;18.62;63.21;100313.59;5052971;28;20013;-77
2022/12/26 10:47:21;;;;;;;10.75;7.28;;;;;;;18.64;63.46;100317.91;5051660;28;20489;-78
2022/12/26 10:49:48;;;;;;;11.52;7.13;;;;;;;18.67;63.23;100326.63;5058279;28;20056;-77
2022/12/26 10:52:19;;;;;;;10.18;7.45;;;;;;;18.65;63.48;100324.91;5054904;28;20120;-76
2022/12/26 10:54:53;;;;;;;9.45;6.57;;;;;;;18.66;63.39;100320.50;5050139;28;20043;-77
2022/12/26 10:57:18;;;;;;;9.60;6.63;;;;;;;18.66;63.48;100323.16;5050479;28;20523;-77
2022/12/26 10:59:47;;;;;;;11.05;7.15;;;;;;;18.70;63.16;100324.72;5048407;28;20013;-78
2022/12/26 11:02:23;;;;;;;8.15;6.13;;;;;;;18.70;63.19;100315.97;5052513;28;20024;-77
2022/12/26 11:05:21;;;;;;;9.60;6.68;;;;;;;18.68;63.31;100313.38;5047273;28;20514;-77
2022/12/26 11:08:04;;;;;;;9.52;6.68;;;;;;;18.72;63.33;100316.75;5049697;28;20076;-76
2022/12/26 11:10:30;;;;;;;8.40;6.82;;;;;;;18.70;63.51;100311.50;5038647;28;20029;-76
2022/12/26 11:13:01;;;;;;;8.32;6.32;;;;;;;18.70;63.56;100319.44;5056318;28;20035;-77
2022/12/26 11:15:38;;;;;;;9.82;6.63;;;;;;;18.72;63.41;100325.56;5049302;28;20021;-77
2022/12/26 11:18:15;;;;;;;8.07;5.80;;;;;;;18.74;63.69;100323.69;5054967;28;20108;-77
2022/12/26 11:20:41;;;;;;;8.73;6.30;;;;;;;18.76;63.36;100324.53;5052555;28;20021;-76
2022/12/26 11:23:30;;;;;;;9.32;6.53;;;;;;;18.77;63.10;100328.88;5042407;28;20028;-78
2022/12/26 11:25:58;;;;;;;10.65;6.95;;;;;;;18.78;62.93;100329.72;5041587;28;20486;-77
2022/12/26 11:28:34;;;;;;;9.32;6.32;;;;;;;18.79;63.10;100332.31;5066118;28;20029;-77
2022/12/26 11:31:03;;;;;;;11.13;7.00;;;;;;;18.78;63.58;100335.91;5060153;28;20428;-76
2022/12/26 11:33:29;;;;;;;9.05;6.90;;;;;;;18.79;63.24;100332.31;5054185;28;20021;-77
2022/12/26 11:36:31;;;;;;;7.53;5.72;;;;;;;18.81;63.25;100341.97;5052844;28;20527;-77
2022/12/26 11:39:01;;;;;;;8.82;6.88;;;;;;;18.82;63.39;100330.47;5009857;28;20584;-77
2022/12/26 11:41:32;;;;;;;9.32;6.45;;;;;;;18.81;63.33;100334.91;5017612;28;20505;-78
2022/12/26 11:44:12;;;;;;;8.90;6.50;;;;;;;18.83;63.17;100326.94;5011106;28;20552;-78
2022/12/26 11:46:46;;;;;;;9.02;6.32;;;;;;;18.84;63.42;100323.38;5006895;28;20048;-77
2022/12/26 11:49:23;;;;;;;9.70;6.35;;;;;;;18.84;63.47;100318.06;5009098;28;20053;-79
2022/12/26 11:51:50;;;;;;;10.02;7.00;;;;;;;18.84;63.52;100320.72;5009971;28;20077;-78
2022/12/26 11:54:23;;;;;;;8.85;6.60;;;;;;;18.85;63.64;100322.44;5008738;28;20411;-77
2022/12/26 11:57:00;;;;;;;11.63;7.38;;;;;;;18.84;63.37;100313.63;5008896;28;20044;-78
2022/12/26 11:59:25;;;;;;;11.38;7.20;;;;;;;18.84;63.52;100318.06;5009705;28;20038;-78
2022/12/26 12:02:15;;;;;;;10.45;6.95;;;;;;;18.85;63.58;100320.66;5009786;28;20032;-78
2022/12/26 12:04:42;;;;;;;10.55;6.65;;;;;;;18.88;63.53;100324.94;5008575;28;20121;-77
2022/12/26 12:07:36;;;;;;;10.73;6.30;;;;;;;18.86;63.68;100321.50;5009291;28;20076;-76
2022/12/26 12:10:10;;;;;;;10.85;6.88;;;;;;;18.88;63.48;100314.38;5009306;28;20453;-78
2022/12/26 12:12:55;;;;;;;11.35;7.28;;;;;;;18.86;63.78;100311.81;5025635;28;20257;-76
2022/12/26 12:15:48;;;;;;;10.90;7.28;;;;;;;18.87;64.03;100310.88;5048241;28;20025;-77
2022/12/26 12:19:00;;;;;;;14.50;7.65;;;;;;;18.89;63.65;100316.13;5039064;28;20045;-77
2022/12/26 12:21:51;;;;;;;11.65;7.25;;;;;;;18.89;63.86;100313.47;5006719;28;20041;-76
2022/12/26 12:24:35;;;;;;;13.75;6.65;;;;;;;18.90;63.60;100317.84;5008355;28;20136;-77
2022/12/26 12:27:12;;;;;;;13.50;6.55;;;;;;;18.91;63.60;100319.56;5006736;28;20042;-76
2022/12/26 12:30:22;;;;;;;13.07;6.82;;;;;;;18.91;64.14;100314.28;5009131;28;20521;-77
2022/12/26 12:33:09;;;;;;;13.07;6.95;;;;;;;18.93;63.79;100317.72;5015991;28;20156;-76
2022/12/26 12:36:03;;;;;;;16.52;6.72;;;;;;;18.95;63.93;100318.53;5008621;28;20068;-77
2022/12/26 12:38:46;;;;;;;12.00;7.13;;;;;;;18.95;64.08;100318.53;4997456;28;20546;-77
2022/12/26 12:41:21;;;;;;;10.35;7.38;;;;;;;18.95;63.86;100315.88;4991734;28;20037;-76
2022/12/26 12:44:00;;;;;;;10.95;6.72;;;;;;;18.94;63.98;100306.22;4992442;28;20122;-76
2022/12/26 12:46:26;;;;;;;10.82;6.85;;;;;;;18.97;64.08;100313.16;5008303;28;20076;-77
2022/12/26 12:49:13;;;;;;;10.27;6.72;;;;;;;18.97;63.87;100308.75;5008140;28;20034;-76
2022/12/26 12:51:47;;;;;;;10.65;6.43;;;;;;;18.94;64.86;100300.94;5006884;28;20041;-76
2022/12/26 12:54:40;;;;;;;10.93;6.40;;;;;;;18.96;64.05;100293.78;5009135;28;20037;-75
2022/12/26 12:57:30;;;;;;;12.43;6.97;;;;;;;18.97;64.29;100303.44;5011361;28;20038;-75
2022/12/26 13:00:02;;;;;;;13.25;7.57;;;;;;;18.99;64.14;100295.47;5048729;28;20025;-75
2022/12/26 13:02:52;;;;;;;8.43;6.47;;;;;;;18.98;64.30;100276.06;5049919;28;20511;-75
2022/12/26 13:05:28;;;;;;;10.85;5.93;;;;;;;19.00;64.44;100276.03;5045651;28;20040;-75
2022/12/26 13:08:00;;;;;;;14.30;6.88;;;;;;;19.00;64.62;100271.59;5050410;28;20032;-75
2022/12/26 13:10:33;;;;;;;9.25;6.03;;;;;;;19.01;64.48;100283.03;5050528;28;20722;-74
2022/12/26 13:13:11;;;;;;;10.32;6.25;;;;;;;19.03;63.90;100287.38;5046094;28;20498;-75
2022/12/26 13:15:45;;;;;;;12.27;6.35;;;;;;;19.02;64.41;100288.25;5048849;28;20029;-75
2022/12/26 13:18:17;;;;;;;11.85;6.40;;;;;;;19.04;64.46;100280.31;5049944;28;20029;-75
2022/12/26 13:20:48;;;;;;;10.20;6.72;;;;;;;19.02;65.07;100282.97;5041559;28;20105;-76
2022/12/26 13:26:25;;;;;;;13.25;8.10;;;;;;;19.07;64.71;100281.97;5050130;28;20101;-77
2022/12/26 13:29:13;;;;;;;13.23;8.43;;;;;;;19.07;64.67;100276.69;5052819;28;20056;-79
2022/12/26 13:31:40;;;;;;;12.52;8.10;;;;;;;19.09;64.01;100280.13;5053730;28;20044;-76
2022/12/26 13:34:15;;;;;;;11.52;7.57;;;;;;;19.11;64.19;100286.19;5053150;28;20070;-76
2022/12/26 13:36:48;;;;;;;10.93;7.30;;;;;;;19.11;64.22;100291.47;5050014;28;20180;-77
2022/12/26 13:39:20;;;;;;;12.45;7.25;;;;;;;19.13;64.01;100300.25;5053442;28;20048;-76
2022/12/26 13:44:39;;;;;;;12.75;7.57;;;;;;;19.14;63.84;100309.91;5053019;28;20028;-77
2022/12/26 13:47:25;;;;;;;7.95;5.97;;;;;;;19.13;63.73;100310.81;5050610;28;20029;-77
2022/12/26 13:49:50;;;;;;;10.60;6.55;;;;;;;19.13;64.01;100309.03;5049406;28;20111;-77
2022/12/26 13:52:31;;;;;;;9.00;6.50;;;;;;;19.14;63.76;100307.25;5051584;28;20115;-77
2022/12/26 13:55:05;;;;;;;9.63;6.50;;;;;;;19.15;63.82;100301.03;5048974;28;20017;-76